sensor_id;sensor_type;location;lat;lon;timestamp;P1;durP1;ratioP1;P2;durP2;ratioP2
55290;SDS011;41155;39.768;2.712;2024-03-22T00:01:52;78.80;;;40.75;;
55290;SDS011;41155;39.768;2.712;2024-03-22T00:04:18;62.17;;;27.73;;
55290;SDS011;41155;39.768;2.712;2024-03-22T00:06:45;64.65;;;35.17;;
55290;SDS011;41155;39.768;2.712;2024-03-22T00:09:13;64.93;;;32.50;;
55290;SDS011;41155;39.768;2.712;2024-03-22T00:11:40;56.50;;;31.88;;
55290;SDS011;41155;39.768;2.712;2024-03-22T00:14:06;72.88;;;38.50;;
55290;SDS011;41155;39.768;2.712;2024-03-22T00:16:32;69.55;;;40.38;;
55290;SDS011;41155;39.768;2.712;2024-03-22T00:18:58;76.63;;;38.17;;
55290;SDS011;41155;39.768;2.712;2024-03-22T00:21:24;63.33;;;33.33;;
55290;SDS011;41155;39.768;2.712;2024-03-22T00:23:49;54.65;;;29.33;;
55290;SDS011;41155;39.768;2.712;2024-03-22T00:26:18;53.00;;;22.40;;
55290;SDS011;41155;39.768;2.712;2024-03-22T00:28:43;46.00;;;23.17;;
55290;SDS011;41155;39.768;2.712;2024-03-22T00:31:09;51.10;;;28.80;;
55290;SDS011;41155;39.768;2.712;2024-03-22T00:33:34;50.25;;;26.85;;
55290;SDS011;41155;39.768;2.712;2024-03-22T00:36:00;54.10;;;20.63;;
55290;SDS011;41155;39.768;2.712;2024-03-22T00:38:26;52.00;;;20.23;;
55290;SDS011;41155;39.768;2.712;2024-03-22T00:40:52;54.03;;;19.05;;
55290;SDS011;41155;39.768;2.712;2024-03-22T00:43:17;53.83;;;26.23;;
55290;SDS011;41155;39.768;2.712;2024-03-22T00:45:43;76.63;;;31.77;;
55290;SDS011;41155;39.768;2.712;2024-03-22T00:48:08;73.63;;;35.78;;
55290;SDS011;41155;39.768;2.712;2024-03-22T00:50:34;93.60;;;38.63;;
55290;SDS011;41155;39.768;2.712;2024-03-22T00:52:59;73.05;;;32.00;;
55290;SDS011;41155;39.768;2.712;2024-03-22T00:55:27;61.25;;;26.13;;
55290;SDS011;41155;39.768;2.712;2024-03-22T00:57:53;54.90;;;22.92;;
55290;SDS011;41155;39.768;2.712;2024-03-22T01:00:18;51.60;;;20.63;;
55290;SDS011;41155;39.768;2.712;2024-03-22T01:02:44;39.13;;;19.40;;
55290;SDS011;41155;39.768;2.712;2024-03-22T01:05:09;45.30;;;18.42;;
55290;SDS011;41155;39.768;2.712;2024-03-22T01:07:36;46.03;;;20.30;;
55290;SDS011;41155;39.768;2.712;2024-03-22T01:10:05;48.85;;;20.40;;
55290;SDS011;41155;39.768;2.712;2024-03-22T01:12:31;69.78;;;23.98;;
55290;SDS011;41155;39.768;2.712;2024-03-22T01:14:57;60.17;;;29.30;;
55290;SDS011;41155;39.768;2.712;2024-03-22T01:17:23;58.50;;;31.60;;
55290;SDS011;41155;39.768;2.712;2024-03-22T01:19:49;59.13;;;28.50;;
55290;SDS011;41155;39.768;2.712;2024-03-22T01:22:15;59.92;;;28.85;;
55290;SDS011;41155;39.768;2.712;2024-03-22T01:24:42;52.38;;;28.85;;
55290;SDS011;41155;39.768;2.712;2024-03-22T01:27:07;55.30;;;30.10;;
55290;SDS011;41155;39.768;2.712;2024-03-22T01:29:33;51.72;;;27.17;;
55290;SDS011;41155;39.768;2.712;2024-03-22T01:31:58;63.25;;;24.95;;
55290;SDS011;41155;39.768;2.712;2024-03-22T01:34:24;52.28;;;25.35;;
55290;SDS011;41155;39.768;2.712;2024-03-22T01:36:49;59.70;;;26.63;;
55290;SDS011;41155;39.768;2.712;2024-03-22T01:39:16;58.58;;;25.42;;
55290;SDS011;41155;39.768;2.712;2024-03-22T01:41:43;54.05;;;24.17;;
55290;SDS011;41155;39.768;2.712;2024-03-22T01:44:09;46.22;;;24.30;;
55290;SDS011;41155;39.768;2.712;2024-03-22T01:46:34;50.72;;;23.65;;
55290;SDS011;41155;39.768;2.712;2024-03-22T01:49:00;55.70;;;27.95;;
55290;SDS011;41155;39.768;2.712;2024-03-22T01:51:26;58.47;;;27.77;;
55290;SDS011;41155;39.768;2.712;2024-03-22T01:53:52;53.25;;;26.75;;
55290;SDS011;41155;39.768;2.712;2024-03-22T01:56:18;58.00;;;27.75;;
55290;SDS011;41155;39.768;2.712;2024-03-22T01:58:44;55.92;;;26.65;;
55290;SDS011;41155;39.768;2.712;2024-03-22T02:01:10;50.22;;;25.27;;
55290;SDS011;41155;39.768;2.712;2024-03-22T02:03:36;49.38;;;23.00;;
55290;SDS011;41155;39.768;2.712;2024-03-22T02:06:01;48.47;;;21.33;;
55290;SDS011;41155;39.768;2.712;2024-03-22T02:08:27;44.95;;;20.45;;
55290;SDS011;41155;39.768;2.712;2024-03-22T02:10:53;50.55;;;23.85;;
55290;SDS011;41155;39.768;2.712;2024-03-22T02:13:18;51.05;;;26.85;;
55290;SDS011;41155;39.768;2.712;2024-03-22T02:15:44;55.83;;;25.83;;
55290;SDS011;41155;39.768;2.712;2024-03-22T02:18:09;56.97;;;27.10;;
55290;SDS011;41155;39.768;2.712;2024-03-22T02:20:35;54.72;;;26.50;;
55290;SDS011;41155;39.768;2.712;2024-03-22T02:23:00;56.00;;;26.08;;
55290;SDS011;41155;39.768;2.712;2024-03-22T02:25:26;45.53;;;24.63;;
55290;SDS011;41155;39.768;2.712;2024-03-22T02:27:51;48.20;;;25.23;;
55290;SDS011;41155;39.768;2.712;2024-03-22T02:30:17;45.15;;;24.55;;
55290;SDS011;41155;39.768;2.712;2024-03-22T02:32:45;49.45;;;23.50;;
55290;SDS011;41155;39.768;2.712;2024-03-22T02:35:11;44.42;;;21.90;;
55290;SDS011;41155;39.768;2.712;2024-03-22T02:37:36;51.10;;;23.25;;
55290;SDS011;41155;39.768;2.712;2024-03-22T02:40:02;69.40;;;31.98;;
55290;SDS011;41155;39.768;2.712;2024-03-22T02:42:27;65.55;;;31.10;;
55290;SDS011;41155;39.768;2.712;2024-03-22T02:44:53;64.35;;;23.15;;
55290;SDS011;41155;39.768;2.712;2024-03-22T02:47:18;106.85;;;37.70;;
55290;SDS011;41155;39.768;2.712;2024-03-22T02:49:44;58.08;;;23.33;;
55290;SDS011;41155;39.768;2.712;2024-03-22T02:52:09;42.80;;;18.63;;
55290;SDS011;41155;39.768;2.712;2024-03-22T02:54:35;55.83;;;21.33;;
55290;SDS011;41155;39.768;2.712;2024-03-22T02:57:00;57.95;;;22.70;;
55290;SDS011;41155;39.768;2.712;2024-03-22T02:59:27;50.33;;;22.83;;
55290;SDS011;41155;39.768;2.712;2024-03-22T03:01:53;48.67;;;22.73;;
55290;SDS011;41155;39.768;2.712;2024-03-22T03:04:18;45.88;;;21.88;;
55290;SDS011;41155;39.768;2.712;2024-03-22T03:06:44;39.08;;;20.85;;
55290;SDS011;41155;39.768;2.712;2024-03-22T03:09:10;46.13;;;21.98;;
55290;SDS011;41155;39.768;2.712;2024-03-22T03:11:38;42.83;;;22.70;;
55290;SDS011;41155;39.768;2.712;2024-03-22T03:14:04;54.15;;;22.13;;
55290;SDS011;41155;39.768;2.712;2024-03-22T03:16:30;45.10;;;20.60;;
55290;SDS011;41155;39.768;2.712;2024-03-22T03:18:55;40.40;;;21.50;;
55290;SDS011;41155;39.768;2.712;2024-03-22T03:21:21;49.67;;;21.58;;
55290;SDS011;41155;39.768;2.712;2024-03-22T03:23:46;51.22;;;22.83;;
55290;SDS011;41155;39.768;2.712;2024-03-22T03:26:12;48.33;;;21.65;;
55290;SDS011;41155;39.768;2.712;2024-03-22T03:28:38;38.03;;;19.88;;
55290;SDS011;41155;39.768;2.712;2024-03-22T03:31:03;39.42;;;19.08;;
55290;SDS011;41155;39.768;2.712;2024-03-22T03:33:29;44.72;;;18.08;;
55290;SDS011;41155;39.768;2.712;2024-03-22T03:35:55;33.15;;;17.77;;
55290;SDS011;41155;39.768;2.712;2024-03-22T03:38:20;38.72;;;18.73;;
55290;SDS011;41155;39.768;2.712;2024-03-22T03:40:46;54.05;;;21.80;;
55290;SDS011;41155;39.768;2.712;2024-03-22T03:43:12;45.60;;;21.75;;
55290;SDS011;41155;39.768;2.712;2024-03-22T03:45:37;36.25;;;19.90;;
55290;SDS011;41155;39.768;2.712;2024-03-22T03:48:03;40.92;;;19.00;;
55290;SDS011;41155;39.768;2.712;2024-03-22T03:50:29;37.72;;;20.17;;
55290;SDS011;41155;39.768;2.712;2024-03-22T03:52:54;43.40;;;20.02;;
55290;SDS011;41155;39.768;2.712;2024-03-22T03:55:20;34.25;;;18.10;;
55290;SDS011;41155;39.768;2.712;2024-03-22T03:57:45;34.70;;;18.08;;
55290;SDS011;41155;39.768;2.712;2024-03-22T04:00:11;35.67;;;18.27;;
55290;SDS011;41155;39.768;2.712;2024-03-22T04:02:37;37.85;;;18.63;;
55290;SDS011;41155;39.768;2.712;2024-03-22T04:05:02;40.53;;;18.38;;
55290;SDS011;41155;39.768;2.712;2024-03-22T04:07:28;47.00;;;18.88;;
55290;SDS011;41155;39.768;2.712;2024-03-22T04:09:54;61.13;;;23.90;;
55290;SDS011;41155;39.768;2.712;2024-03-22T04:12:19;56.75;;;27.40;;
55290;SDS011;41155;39.768;2.712;2024-03-22T04:14:45;76.00;;;32.88;;
55290;SDS011;41155;39.768;2.712;2024-03-22T04:17:10;68.13;;;28.17;;
55290;SDS011;41155;39.768;2.712;2024-03-22T04:19:36;65.85;;;28.45;;
55290;SDS011;41155;39.768;2.712;2024-03-22T04:22:01;54.60;;;23.40;;
55290;SDS011;41155;39.768;2.712;2024-03-22T04:24:27;47.05;;;22.63;;
55290;SDS011;41155;39.768;2.712;2024-03-22T04:26:53;47.85;;;19.15;;
55290;SDS011;41155;39.768;2.712;2024-03-22T04:29:18;42.60;;;18.52;;
55290;SDS011;41155;39.768;2.712;2024-03-22T04:31:43;34.85;;;15.88;;
55290;SDS011;41155;39.768;2.712;2024-03-22T04:34:09;46.35;;;17.25;;
55290;SDS011;41155;39.768;2.712;2024-03-22T04:36:35;41.10;;;17.42;;
55290;SDS011;41155;39.768;2.712;2024-03-22T04:39:01;34.80;;;17.23;;
55290;SDS011;41155;39.768;2.712;2024-03-22T04:41:26;37.83;;;18.77;;
55290;SDS011;41155;39.768;2.712;2024-03-22T04:43:52;50.70;;;19.45;;
55290;SDS011;41155;39.768;2.712;2024-03-22T04:46:17;45.72;;;18.00;;
55290;SDS011;41155;39.768;2.712;2024-03-22T04:48:43;46.25;;;19.60;;
55290;SDS011;41155;39.768;2.712;2024-03-22T04:51:08;47.17;;;17.27;;
55290;SDS011;41155;39.768;2.712;2024-03-22T04:53:34;41.00;;;17.30;;
55290;SDS011;41155;39.768;2.712;2024-03-22T04:55:59;29.75;;;15.98;;
55290;SDS011;41155;39.768;2.712;2024-03-22T04:58:25;34.70;;;15.30;;
55290;SDS011;41155;39.768;2.712;2024-03-22T05:00:55;40.72;;;16.10;;
55290;SDS011;41155;39.768;2.712;2024-03-22T05:03:22;33.35;;;16.38;;
55290;SDS011;41155;39.768;2.712;2024-03-22T05:05:49;48.08;;;18.25;;
55290;SDS011;41155;39.768;2.712;2024-03-22T05:08:14;39.25;;;17.75;;
55290;SDS011;41155;39.768;2.712;2024-03-22T05:10:40;48.55;;;18.80;;
55290;SDS011;41155;39.768;2.712;2024-03-22T05:13:05;30.20;;;15.90;;
55290;SDS011;41155;39.768;2.712;2024-03-22T05:15:31;31.33;;;14.75;;
55290;SDS011;41155;39.768;2.712;2024-03-22T05:17:57;42.72;;;14.73;;
55290;SDS011;41155;39.768;2.712;2024-03-22T05:20:23;38.47;;;15.60;;
55290;SDS011;41155;39.768;2.712;2024-03-22T05:22:48;42.28;;;15.80;;
55290;SDS011;41155;39.768;2.712;2024-03-22T05:25:14;33.85;;;16.88;;
55290;SDS011;41155;39.768;2.712;2024-03-22T05:27:40;42.47;;;16.17;;
55290;SDS011;41155;39.768;2.712;2024-03-22T05:30:07;39.55;;;15.57;;
55290;SDS011;41155;39.768;2.712;2024-03-22T05:32:34;33.33;;;14.38;;
55290;SDS011;41155;39.768;2.712;2024-03-22T05:34:59;37.58;;;14.10;;
55290;SDS011;41155;39.768;2.712;2024-03-22T05:37:25;37.45;;;14.50;;
55290;SDS011;41155;39.768;2.712;2024-03-22T05:39:50;47.45;;;14.77;;
55290;SDS011;41155;39.768;2.712;2024-03-22T05:42:16;38.63;;;14.48;;
55290;SDS011;41155;39.768;2.712;2024-03-22T05:44:41;46.45;;;18.05;;
55290;SDS011;41155;39.768;2.712;2024-03-22T05:47:07;38.20;;;19.10;;
55290;SDS011;41155;39.768;2.712;2024-03-22T05:49:32;34.40;;;18.15;;
55290;SDS011;41155;39.768;2.712;2024-03-22T05:51:58;37.05;;;17.80;;
55290;SDS011;41155;39.768;2.712;2024-03-22T05:54:23;56.67;;;18.05;;
55290;SDS011;41155;39.768;2.712;2024-03-22T05:56:49;45.60;;;16.13;;
55290;SDS011;41155;39.768;2.712;2024-03-22T05:59:14;43.17;;;16.35;;
55290;SDS011;41155;39.768;2.712;2024-03-22T06:01:40;49.55;;;16.13;;
55290;SDS011;41155;39.768;2.712;2024-03-22T06:04:05;38.33;;;17.45;;
55290;SDS011;41155;39.768;2.712;2024-03-22T06:06:34;34.78;;;18.25;;
55290;SDS011;41155;39.768;2.712;2024-03-22T06:09:01;48.45;;;18.15;;
55290;SDS011;41155;39.768;2.712;2024-03-22T06:11:29;34.88;;;16.40;;
55290;SDS011;41155;39.768;2.712;2024-03-22T06:13:55;59.00;;;19.38;;
55290;SDS011;41155;39.768;2.712;2024-03-22T06:16:21;58.28;;;19.42;;
55290;SDS011;41155;39.768;2.712;2024-03-22T06:18:47;63.65;;;22.50;;
55290;SDS011;41155;39.768;2.712;2024-03-22T06:21:13;62.33;;;32.75;;
55290;SDS011;41155;39.768;2.712;2024-03-22T06:23:39;64.78;;;42.20;;
55290;SDS011;41155;39.768;2.712;2024-03-22T06:26:06;49.58;;;27.75;;
55290;SDS011;41155;39.768;2.712;2024-03-22T06:28:32;50.20;;;24.65;;
55290;SDS011;41155;39.768;2.712;2024-03-22T06:30:57;51.20;;;25.95;;
55290;SDS011;41155;39.768;2.712;2024-03-22T06:33:22;47.10;;;23.17;;
55290;SDS011;41155;39.768;2.712;2024-03-22T06:35:48;46.97;;;20.17;;
55290;SDS011;41155;39.768;2.712;2024-03-22T06:38:13;51.00;;;21.27;;
55290;SDS011;41155;39.768;2.712;2024-03-22T06:40:39;50.83;;;20.23;;
55290;SDS011;41155;39.768;2.712;2024-03-22T06:43:04;67.40;;;22.25;;
55290;SDS011;41155;39.768;2.712;2024-03-22T06:45:30;62.70;;;27.05;;
55290;SDS011;41155;39.768;2.712;2024-03-22T06:47:56;75.60;;;39.67;;
55290;SDS011;41155;39.768;2.712;2024-03-22T06:50:21;75.65;;;34.97;;
55290;SDS011;41155;39.768;2.712;2024-03-22T06:52:49;64.35;;;31.77;;
55290;SDS011;41155;39.768;2.712;2024-03-22T06:55:18;65.30;;;30.30;;
55290;SDS011;41155;39.768;2.712;2024-03-22T06:57:47;72.35;;;30.45;;
55290;SDS011;41155;39.768;2.712;2024-03-22T07:00:14;53.40;;;25.92;;
55290;SDS011;41155;39.768;2.712;2024-03-22T07:02:41;75.20;;;26.75;;
55290;SDS011;41155;39.768;2.712;2024-03-22T07:05:07;55.10;;;25.58;;
55290;SDS011;41155;39.768;2.712;2024-03-22T07:07:34;64.97;;;24.98;;
55290;SDS011;41155;39.768;2.712;2024-03-22T07:10:03;64.30;;;25.05;;
55290;SDS011;41155;39.768;2.712;2024-03-22T07:12:32;75.78;;;29.25;;
55290;SDS011;41155;39.768;2.712;2024-03-22T07:15:01;114.70;;;45.70;;
55290;SDS011;41155;39.768;2.712;2024-03-22T07:17:28;121.28;;;64.18;;
55290;SDS011;41155;39.768;2.712;2024-03-22T07:19:55;124.00;;;68.10;;
55290;SDS011;41155;39.768;2.712;2024-03-22T07:22:21;246.93;;;148.43;;
55290;SDS011;41155;39.768;2.712;2024-03-22T07:24:47;279.15;;;168.80;;
55290;SDS011;41155;39.768;2.712;2024-03-22T07:27:14;161.63;;;92.10;;
55290;SDS011;41155;39.768;2.712;2024-03-22T07:29:40;132.50;;;70.22;;
55290;SDS011;41155;39.768;2.712;2024-03-22T07:32:06;165.73;;;89.38;;
55290;SDS011;41155;39.768;2.712;2024-03-22T07:34:31;180.63;;;102.85;;
55290;SDS011;41155;39.768;2.712;2024-03-22T07:36:57;118.65;;;61.85;;
55290;SDS011;41155;39.768;2.712;2024-03-22T07:39:23;80.35;;;33.30;;
55290;SDS011;41155;39.768;2.712;2024-03-22T07:41:49;73.10;;;31.08;;
55290;SDS011;41155;39.768;2.712;2024-03-22T07:44:15;71.85;;;31.27;;
55290;SDS011;41155;39.768;2.712;2024-03-22T07:46:43;78.45;;;32.95;;
55290;SDS011;41155;39.768;2.712;2024-03-22T07:49:09;123.07;;;56.88;;
55290;SDS011;41155;39.768;2.712;2024-03-22T07:51:35;112.85;;;48.17;;
55290;SDS011;41155;39.768;2.712;2024-03-22T07:54:00;104.22;;;47.50;;
55290;SDS011;41155;39.768;2.712;2024-03-22T07:56:26;111.05;;;49.55;;
55290;SDS011;41155;39.768;2.712;2024-03-22T07:58:51;133.93;;;55.90;;
55290;SDS011;41155;39.768;2.712;2024-03-22T08:01:17;118.18;;;60.72;;
55290;SDS011;41155;39.768;2.712;2024-03-22T08:03:43;138.82;;;62.95;;
55290;SDS011;41155;39.768;2.712;2024-03-22T08:06:08;127.68;;;60.45;;
55290;SDS011;41155;39.768;2.712;2024-03-22T08:08:34;113.57;;;50.55;;
55290;SDS011;41155;39.768;2.712;2024-03-22T08:10:59;96.22;;;44.78;;
55290;SDS011;41155;39.768;2.712;2024-03-22T08:13:24;96.15;;;44.70;;
55290;SDS011;41155;39.768;2.712;2024-03-22T08:15:50;111.55;;;48.47;;
55290;SDS011;41155;39.768;2.712;2024-03-22T08:18:15;101.20;;;47.97;;
55290;SDS011;41155;39.768;2.712;2024-03-22T08:20:41;86.18;;;44.05;;
55290;SDS011;41155;39.768;2.712;2024-03-22T08:23:07;91.68;;;44.33;;
55290;SDS011;41155;39.768;2.712;2024-03-22T08:25:32;109.43;;;44.17;;
55290;SDS011;41155;39.768;2.712;2024-03-22T08:27:59;101.30;;;41.47;;
55290;SDS011;41155;39.768;2.712;2024-03-22T08:30:25;81.95;;;38.25;;
55290;SDS011;41155;39.768;2.712;2024-03-22T08:32:53;81.90;;;36.97;;
55290;SDS011;41155;39.768;2.712;2024-03-22T08:35:19;77.70;;;33.28;;
55290;SDS011;41155;39.768;2.712;2024-03-22T08:37:44;79.25;;;30.25;;
55290;SDS011;41155;39.768;2.712;2024-03-22T08:40:10;71.88;;;25.70;;
55290;SDS011;41155;39.768;2.712;2024-03-22T08:42:36;61.95;;;24.30;;
55290;SDS011;41155;39.768;2.712;2024-03-22T08:45:02;58.75;;;26.52;;
55290;SDS011;41155;39.768;2.712;2024-03-22T08:47:29;56.38;;;24.40;;
55290;SDS011;41155;39.768;2.712;2024-03-22T08:49:55;62.88;;;24.67;;
55290;SDS011;41155;39.768;2.712;2024-03-22T08:52:22;56.42;;;24.00;;
55290;SDS011;41155;39.768;2.712;2024-03-22T08:54:49;67.88;;;23.88;;
55290;SDS011;41155;39.768;2.712;2024-03-22T08:57:15;66.78;;;24.35;;
55290;SDS011;41155;39.768;2.712;2024-03-22T08:59:41;50.00;;;21.15;;
55290;SDS011;41155;39.768;2.712;2024-03-22T09:02:08;97.80;;;23.05;;
55290;SDS011;41155;39.768;2.712;2024-03-22T09:04:33;53.95;;;17.60;;
55290;SDS011;41155;39.768;2.712;2024-03-22T09:06:59;42.63;;;15.95;;
55290;SDS011;41155;39.768;2.712;2024-03-22T09:09:24;52.45;;;17.15;;
55290;SDS011;41155;39.768;2.712;2024-03-22T09:11:50;53.42;;;17.45;;
55290;SDS011;41155;39.768;2.712;2024-03-22T09:14:15;46.58;;;15.13;;
55290;SDS011;41155;39.768;2.712;2024-03-22T09:16:42;64.30;;;15.98;;
55290;SDS011;41155;39.768;2.712;2024-03-22T09:19:07;53.95;;;15.45;;
55290;SDS011;41155;39.768;2.712;2024-03-22T09:21:33;41.80;;;15.35;;
55290;SDS011;41155;39.768;2.712;2024-03-22T09:23:59;56.13;;;16.35;;
55290;SDS011;41155;39.768;2.712;2024-03-22T09:26:24;44.10;;;15.82;;
55290;SDS011;41155;39.768;2.712;2024-03-22T09:28:50;60.38;;;17.80;;
55290;SDS011;41155;39.768;2.712;2024-03-22T09:31:15;48.28;;;17.75;;
55290;SDS011;41155;39.768;2.712;2024-03-22T09:33:41;59.28;;;21.58;;
55290;SDS011;41155;39.768;2.712;2024-03-22T09:36:07;60.92;;;24.20;;
55290;SDS011;41155;39.768;2.712;2024-03-22T09:38:33;76.20;;;23.08;;
55290;SDS011;41155;39.768;2.712;2024-03-22T09:40:58;57.67;;;15.90;;
55290;SDS011;41155;39.768;2.712;2024-03-22T09:43:24;59.28;;;14.45;;
55290;SDS011;41155;39.768;2.712;2024-03-22T09:45:52;39.03;;;13.43;;
55290;SDS011;41155;39.768;2.712;2024-03-22T09:48:19;34.13;;;14.13;;
55290;SDS011;41155;39.768;2.712;2024-03-22T09:50:48;41.22;;;13.60;;
55290;SDS011;41155;39.768;2.712;2024-03-22T09:53:17;41.78;;;12.50;;
55290;SDS011;41155;39.768;2.712;2024-03-22T09:55:44;33.28;;;11.20;;
55290;SDS011;41155;39.768;2.712;2024-03-22T09:58:12;32.55;;;12.15;;
55290;SDS011;41155;39.768;2.712;2024-03-22T10:00:37;30.10;;;10.30;;
55290;SDS011;41155;39.768;2.712;2024-03-22T10:03:03;27.90;;;9.65;;
55290;SDS011;41155;39.768;2.712;2024-03-22T10:05:29;22.45;;;8.90;;
55290;SDS011;41155;39.768;2.712;2024-03-22T10:07:55;28.85;;;8.93;;
55290;SDS011;41155;39.768;2.712;2024-03-22T10:10:20;37.90;;;9.20;;
55290;SDS011;41155;39.768;2.712;2024-03-22T10:12:46;32.63;;;9.77;;
55290;SDS011;41155;39.768;2.712;2024-03-22T10:15:12;34.25;;;8.43;;
55290;SDS011;41155;39.768;2.712;2024-03-22T10:17:38;42.72;;;8.57;;
55290;SDS011;41155;39.768;2.712;2024-03-22T10:20:05;20.42;;;9.20;;
55290;SDS011;41155;39.768;2.712;2024-03-22T10:22:37;31.98;;;10.02;;
55290;SDS011;41155;39.768;2.712;2024-03-22T10:25:06;23.17;;;9.20;;
55290;SDS011;41155;39.768;2.712;2024-03-22T10:27:32;36.53;;;9.82;;
55290;SDS011;41155;39.768;2.712;2024-03-22T10:29:57;42.85;;;10.13;;
55290;SDS011;41155;39.768;2.712;2024-03-22T10:32:23;30.88;;;10.50;;
55290;SDS011;41155;39.768;2.712;2024-03-22T10:34:50;29.42;;;9.18;;
55290;SDS011;41155;39.768;2.712;2024-03-22T10:37:16;24.35;;;9.75;;
55290;SDS011;41155;39.768;2.712;2024-03-22T10:39:42;31.90;;;8.98;;
55290;SDS011;41155;39.768;2.712;2024-03-22T10:42:09;25.17;;;9.95;;
55290;SDS011;41155;39.768;2.712;2024-03-22T10:44:37;20.42;;;9.20;;
55290;SDS011;41155;39.768;2.712;2024-03-22T10:47:06;27.90;;;9.18;;
55290;SDS011;41155;39.768;2.712;2024-03-22T10:49:37;27.90;;;8.98;;
55290;SDS011;41155;39.768;2.712;2024-03-22T10:52:03;27.88;;;8.93;;
55290;SDS011;41155;39.768;2.712;2024-03-22T10:54:33;23.45;;;8.88;;
55290;SDS011;41155;39.768;2.712;2024-03-22T10:57:02;18.40;;;8.82;;
55290;SDS011;41155;39.768;2.712;2024-03-22T10:59:34;23.30;;;10.68;;
55290;SDS011;41155;39.768;2.712;2024-03-22T11:02:03;28.23;;;10.32;;
55290;SDS011;41155;39.768;2.712;2024-03-22T11:04:29;19.42;;;8.48;;
55290;SDS011;41155;39.768;2.712;2024-03-22T11:06:58;29.38;;;11.23;;
55290;SDS011;41155;39.768;2.712;2024-03-22T11:09:25;33.17;;;10.85;;
55290;SDS011;41155;39.768;2.712;2024-03-22T11:11:51;25.10;;;9.57;;
55290;SDS011;41155;39.768;2.712;2024-03-22T11:14:18;19.73;;;8.20;;
55290;SDS011;41155;39.768;2.712;2024-03-22T11:16:45;25.77;;;10.00;;
55290;SDS011;41155;39.768;2.712;2024-03-22T11:19:11;27.90;;;11.57;;
55290;SDS011;41155;39.768;2.712;2024-03-22T11:21:37;38.90;;;11.23;;
55290;SDS011;41155;39.768;2.712;2024-03-22T11:24:04;38.60;;;11.40;;
55290;SDS011;41155;39.768;2.712;2024-03-22T11:26:30;36.80;;;12.43;;
55290;SDS011;41155;39.768;2.712;2024-03-22T11:28:55;29.90;;;11.20;;
55290;SDS011;41155;39.768;2.712;2024-03-22T11:31:21;37.00;;;11.63;;
55290;SDS011;41155;39.768;2.712;2024-03-22T11:33:52;36.28;;;12.88;;
55290;SDS011;41155;39.768;2.712;2024-03-22T11:36:18;40.10;;;14.23;;
55290;SDS011;41155;39.768;2.712;2024-03-22T11:38:44;35.67;;;11.73;;
55290;SDS011;41155;39.768;2.712;2024-03-22T11:41:09;31.40;;;11.70;;
55290;SDS011;41155;39.768;2.712;2024-03-22T11:43:36;38.53;;;11.52;;
55290;SDS011;41155;39.768;2.712;2024-03-22T11:46:02;40.10;;;11.88;;
55290;SDS011;41155;39.768;2.712;2024-03-22T11:48:27;34.85;;;11.02;;
55290;SDS011;41155;39.768;2.712;2024-03-22T11:50:53;32.15;;;10.35;;
55290;SDS011;41155;39.768;2.712;2024-03-22T11:53:20;39.80;;;11.55;;
55290;SDS011;41155;39.768;2.712;2024-03-22T11:55:48;27.98;;;10.43;;
55290;SDS011;41155;39.768;2.712;2024-03-22T11:58:14;32.50;;;11.30;;
55290;SDS011;41155;39.768;2.712;2024-03-22T12:00:40;30.10;;;11.30;;
55290;SDS011;41155;39.768;2.712;2024-03-22T12:03:07;33.53;;;9.32;;
55290;SDS011;41155;39.768;2.712;2024-03-22T12:05:32;31.90;;;9.32;;
55290;SDS011;41155;39.768;2.712;2024-03-22T12:07:58;34.17;;;9.40;;
55290;SDS011;41155;39.768;2.712;2024-03-22T12:10:23;29.17;;;10.02;;
55290;SDS011;41155;39.768;2.712;2024-03-22T12:12:49;34.42;;;10.07;;
55290;SDS011;41155;39.768;2.712;2024-03-22T12:15:14;33.67;;;13.20;;
55290;SDS011;41155;39.768;2.712;2024-03-22T12:17:40;26.63;;;10.68;;
55290;SDS011;41155;39.768;2.712;2024-03-22T12:20:09;21.95;;;9.15;;
55290;SDS011;41155;39.768;2.712;2024-03-22T12:22:35;25.42;;;8.85;;
55290;SDS011;41155;39.768;2.712;2024-03-22T12:25:01;24.70;;;8.75;;
55290;SDS011;41155;39.768;2.712;2024-03-22T12:27:26;28.88;;;8.68;;
55290;SDS011;41155;39.768;2.712;2024-03-22T12:29:52;25.85;;;7.55;;
55290;SDS011;41155;39.768;2.712;2024-03-22T12:32:18;20.00;;;7.20;;
55290;SDS011;41155;39.768;2.712;2024-03-22T12:34:43;30.85;;;7.75;;
55290;SDS011;41155;39.768;2.712;2024-03-22T12:37:09;26.25;;;7.68;;
55290;SDS011;41155;39.768;2.712;2024-03-22T12:39:34;25.63;;;7.25;;
55290;SDS011;41155;39.768;2.712;2024-03-22T12:42:00;17.33;;;7.15;;
55290;SDS011;41155;39.768;2.712;2024-03-22T12:44:28;27.38;;;7.40;;
55290;SDS011;41155;39.768;2.712;2024-03-22T12:46:54;35.17;;;8.55;;
55290;SDS011;41155;39.768;2.712;2024-03-22T12:49:20;23.10;;;7.10;;
55290;SDS011;41155;39.768;2.712;2024-03-22T12:51:45;18.95;;;6.75;;
55290;SDS011;41155;39.768;2.712;2024-03-22T12:54:11;22.98;;;6.45;;
55290;SDS011;41155;39.768;2.712;2024-03-22T12:56:39;15.07;;;6.07;;
55290;SDS011;41155;39.768;2.712;2024-03-22T12:59:05;17.63;;;6.22;;
55290;SDS011;41155;39.768;2.712;2024-03-22T13:01:30;22.33;;;7.20;;
55290;SDS011;41155;39.768;2.712;2024-03-22T13:03:56;16.20;;;7.00;;
55290;SDS011;41155;39.768;2.712;2024-03-22T13:06:22;17.77;;;5.88;;
55290;SDS011;41155;39.768;2.712;2024-03-22T13:08:47;18.83;;;6.43;;
55290;SDS011;41155;39.768;2.712;2024-03-22T13:11:13;13.63;;;5.03;;
55290;SDS011;41155;39.768;2.712;2024-03-22T13:13:39;22.50;;;5.70;;
55290;SDS011;41155;39.768;2.712;2024-03-22T13:16:05;21.13;;;5.53;;
55290;SDS011;41155;39.768;2.712;2024-03-22T13:18:32;18.08;;;5.07;;
55290;SDS011;41155;39.768;2.712;2024-03-22T13:20:57;14.38;;;5.60;;
55290;SDS011;41155;39.768;2.712;2024-03-22T13:23:23;14.50;;;5.78;;
55290;SDS011;41155;39.768;2.712;2024-03-22T13:25:49;20.33;;;5.60;;
55290;SDS011;41155;39.768;2.712;2024-03-22T13:28:14;14.40;;;5.15;;
55290;SDS011;41155;39.768;2.712;2024-03-22T13:30:45;21.85;;;5.40;;
55290;SDS011;41155;39.768;2.712;2024-03-22T13:33:10;14.60;;;4.78;;
55290;SDS011;41155;39.768;2.712;2024-03-22T13:35:36;18.02;;;5.40;;
55290;SDS011;41155;39.768;2.712;2024-03-22T13:38:04;14.20;;;4.75;;
55290;SDS011;41155;39.768;2.712;2024-03-22T13:40:30;24.83;;;6.03;;
55290;SDS011;41155;39.768;2.712;2024-03-22T13:42:55;13.65;;;5.10;;
55290;SDS011;41155;39.768;2.712;2024-03-22T13:45:21;18.15;;;6.93;;
55290;SDS011;41155;39.768;2.712;2024-03-22T13:47:46;11.10;;;5.07;;
55290;SDS011;41155;39.768;2.712;2024-03-22T13:50:12;16.15;;;6.68;;
55290;SDS011;41155;39.768;2.712;2024-03-22T13:52:37;18.63;;;6.18;;
55290;SDS011;41155;39.768;2.712;2024-03-22T13:55:03;97.68;;;65.60;;
55290;SDS011;41155;39.768;2.712;2024-03-22T13:57:30;17.92;;;5.75;;
55290;SDS011;41155;39.768;2.712;2024-03-22T13:59:56;31.73;;;15.13;;
55290;SDS011;41155;39.768;2.712;2024-03-22T14:02:21;15.70;;;5.60;;
55290;SDS011;41155;39.768;2.712;2024-03-22T14:04:47;194.55;;;135.23;;
55290;SDS011;41155;39.768;2.712;2024-03-22T14:07:13;285.88;;;225.90;;
55290;SDS011;41155;39.768;2.712;2024-03-22T14:09:39;541.78;;;480.55;;
55290;SDS011;41155;39.768;2.712;2024-03-22T14:12:06;423.48;;;356.35;;
55290;SDS011;41155;39.768;2.712;2024-03-22T14:14:31;57.05;;;30.67;;
55290;SDS011;41155;39.768;2.712;2024-03-22T14:16:57;104.03;;;68.35;;